createdAt,value
2023-05-04T00:00:51.075Z,16.79
2023-05-04T00:01:51.056Z,16.71
2023-05-04T00:02:51.129Z,16.57
2023-05-04T00:03:51.221Z,17.05
2023-05-04T00:04:51.053Z,16.77
2023-05-04T00:05:51.037Z,16.66
2023-05-04T00:06:51.039Z,16.38
2023-05-04T00:07:51.034Z,16.37
2023-05-04T00:08:51.030Z,16.65
2023-05-04T00:09:51.051Z,16.47
2023-05-04T00:10:51.744Z,16.19
2023-05-04T00:11:51.137Z,16.20
2023-05-04T00:12:51.179Z,16.26
2023-05-04T00:13:51.193Z,16.44
2023-05-04T00:14:51.222Z,16.19
2023-05-04T00:15:51.392Z,15.88
2023-05-04T00:16:51.305Z,16.20
2023-05-04T00:17:51.374Z,15.86
2023-05-04T00:18:51.380Z,15.92
2023-05-04T00:19:51.491Z,16.23
2023-05-04T00:20:51.464Z,16.33
2023-05-04T00:21:51.606Z,15.65
2023-05-04T00:22:51.537Z,15.75
2023-05-04T00:23:51.577Z,15.95
2023-05-04T00:24:51.603Z,15.50
2023-05-04T00:25:51.628Z,15.56
2023-05-04T00:26:51.755Z,15.18
2023-05-04T00:27:51.716Z,15.70
2023-05-04T00:28:51.757Z,15.36
2023-05-04T00:29:51.796Z,15.50
2023-05-04T00:30:51.833Z,15.31
2023-05-04T00:31:51.875Z,15.50
2023-05-04T00:32:52.000Z,15.03
2023-05-04T00:33:51.944Z,14.98
2023-05-04T00:34:51.982Z,15.19
2023-05-04T00:35:52.015Z,15.41
2023-05-04T00:36:52.064Z,15.24
2023-05-04T00:37:52.112Z,14.94
2023-05-04T00:38:52.181Z,14.94
2023-05-04T00:39:52.188Z,15.19
2023-05-04T00:40:52.204Z,14.90
2023-05-04T00:41:52.315Z,14.66
2023-05-04T00:42:52.288Z,14.72
2023-05-04T00:43:53.257Z,14.36
2023-05-04T00:44:52.359Z,14.90
2023-05-04T00:45:52.482Z,14.58
2023-05-04T00:46:52.526Z,14.62
2023-05-04T00:47:52.565Z,14.69
2023-05-04T00:48:52.546Z,14.61
2023-05-04T00:49:52.578Z,14.56
2023-05-04T00:50:52.615Z,14.04
2023-05-04T00:51:52.735Z,14.67
2023-05-04T00:52:52.714Z,14.22
2023-05-04T00:53:52.748Z,14.17
2023-05-04T00:54:52.796Z,14.54
2023-05-04T00:55:52.867Z,14.33
2023-05-04T00:56:52.863Z,14.03
2023-05-04T00:57:52.909Z,14.32
2023-05-04T00:58:52.939Z,14.18
2023-05-04T00:59:52.982Z,14.19
2023-05-04T01:00:53.030Z,13.76
2023-05-04T01:01:53.066Z,14.18
2023-05-04T01:02:53.255Z,14.01
2023-05-04T01:03:53.264Z,14.08
2023-05-04T01:04:53.175Z,14.18
2023-05-04T01:05:53.226Z,13.88
2023-05-04T01:06:53.260Z,14.12
2023-05-04T01:07:53.310Z,14.16
2023-05-04T01:08:53.335Z,14.10
2023-05-04T01:09:53.365Z,14.00
2023-05-04T01:10:53.423Z,13.93
2023-05-04T01:11:53.461Z,13.98
2023-05-04T01:12:53.588Z,13.90
2023-05-04T01:13:53.545Z,13.66
2023-05-04T01:14:53.605Z,13.72
2023-05-04T01:15:53.629Z,13.67
2023-05-04T01:16:53.721Z,13.54
2023-05-04T01:17:53.817Z,13.71
2023-05-04T01:18:53.787Z,13.59
2023-05-04T01:19:53.828Z,13.37
2023-05-04T01:20:53.972Z,13.12
2023-05-04T01:21:53.944Z,13.06
2023-05-04T01:22:54.082Z,13.06
2023-05-04T01:23:54.047Z,12.91
2023-05-04T01:24:54.138Z,13.00
2023-05-04T01:25:54.166Z,12.80
2023-05-04T01:26:54.186Z,12.79
2023-05-04T01:27:54.279Z,12.92
2023-05-04T01:28:54.285Z,12.65
2023-05-04T01:29:54.317Z,12.84
2023-05-04T01:30:54.382Z,12.68
2023-05-04T01:31:54.411Z,12.56
2023-05-04T01:32:54.489Z,12.71
2023-05-04T01:33:55.318Z,12.37
2023-05-04T01:34:55.275Z,12.37
2023-05-04T01:35:54.610Z,12.66
2023-05-04T01:36:54.654Z,12.44
2023-05-04T01:37:54.703Z,12.58
2023-05-04T01:38:54.762Z,12.32
2023-05-04T01:39:54.826Z,12.25
2023-05-04T01:40:54.854Z,12.16
2023-05-04T01:41:54.909Z,12.11
2023-05-04T01:42:54.958Z,11.69
2023-05-04T01:43:55.096Z,11.92
2023-05-04T01:44:55.063Z,11.86
2023-05-04T01:45:55.143Z,12.05
2023-05-04T01:46:55.158Z,11.98
2023-05-04T01:47:55.265Z,11.73
2023-05-04T01:48:55.268Z,11.78
2023-05-04T01:49:55.312Z,11.75
2023-05-04T01:50:55.356Z,11.68
2023-05-04T01:51:55.437Z,11.52
2023-05-04T01:52:55.459Z,11.54
2023-05-04T01:53:55.509Z,11.43
2023-05-04T01:54:55.559Z,11.41
2023-05-04T01:55:55.614Z,11.50
2023-05-04T01:56:55.659Z,11.42
2023-05-04T01:57:55.730Z,11.68
2023-05-04T01:58:55.789Z,11.53
2023-05-04T01:59:55.845Z,11.62
2023-05-04T02:00:55.897Z,11.47
2023-05-04T02:01:55.994Z,11.53
2023-05-04T02:02:56.171Z,11.50
2023-05-04T02:03:56.177Z,11.55
2023-05-04T02:04:56.123Z,11.60
2023-05-04T02:05:56.193Z,11.06
2023-05-04T02:06:56.240Z,11.29
2023-05-04T02:07:56.284Z,11.24
2023-05-04T02:08:56.434Z,11.34
2023-05-04T02:09:56.400Z,11.36
2023-05-04T02:10:56.500Z,11.37
2023-05-04T02:11:56.510Z,11.09
2023-05-04T02:12:56.605Z,11.27
2023-05-04T02:13:56.618Z,10.85
2023-05-04T02:14:56.667Z,10.91
2023-05-04T02:15:56.732Z,11.12
2023-05-04T02:16:56.787Z,11.11
2023-05-04T02:17:56.968Z,11.30
2023-05-04T02:18:56.899Z,11.17
2023-05-04T02:19:56.958Z,11.02
2023-05-04T02:20:57.010Z,11.23
2023-05-04T02:21:57.064Z,10.88
2023-05-04T02:22:57.122Z,11.00
2023-05-04T02:23:57.203Z,10.86
2023-05-04T02:24:57.228Z,10.85
2023-05-04T02:25:57.289Z,10.92
2023-05-04T02:26:57.436Z,10.98
2023-05-04T02:27:57.391Z,10.78
2023-05-04T02:28:57.451Z,10.87
2023-05-04T02:29:57.491Z,10.85
2023-05-04T02:30:57.550Z,10.95
2023-05-04T02:31:57.762Z,10.93
2023-05-04T02:32:57.687Z,10.88
2023-05-04T02:33:57.727Z,10.73
2023-05-04T02:34:57.849Z,10.79
2023-05-04T02:35:57.849Z,10.58
2023-05-04T02:36:57.895Z,10.71
2023-05-04T02:37:57.953Z,10.93
2023-05-04T02:38:58.018Z,10.74
2023-05-04T02:39:58.066Z,10.72
2023-05-04T02:40:58.123Z,10.55
2023-05-04T02:41:58.180Z,10.48
2023-05-04T02:42:58.231Z,10.53
2023-05-04T02:43:58.290Z,10.57
2023-05-04T02:44:58.353Z,10.28
2023-05-04T02:45:58.496Z,10.46
2023-05-04T02:46:58.476Z,10.40
2023-05-04T02:47:58.578Z,10.49
2023-05-04T02:48:58.590Z,10.39
2023-05-04T02:49:58.648Z,10.49
2023-05-04T02:50:58.690Z,10.54
2023-05-04T02:51:58.757Z,10.45
2023-05-04T02:52:58.806Z,10.43
2023-05-04T02:53:58.864Z,10.23
2023-05-04T02:54:58.906Z,10.40
2023-05-04T02:55:58.973Z,10.42
2023-05-04T02:56:59.065Z,10.43
2023-05-04T02:57:59.068Z,10.37
2023-05-04T02:58:59.116Z,10.46
2023-05-04T02:59:59.178Z,10.34
2023-05-04T03:00:59.246Z,10.11
2023-05-04T03:01:59.336Z,10.36
2023-05-04T03:02:59.347Z,10.34
2023-05-04T03:03:59.459Z,10.24
2023-05-04T03:04:59.429Z,10.24
2023-05-04T03:05:59.486Z,10.24
2023-05-04T03:06:59.548Z,10.30
2023-05-04T03:07:59.588Z,10.04
2023-05-04T03:08:59.694Z,10.35
2023-05-04T03:09:59.695Z,10.05
2023-05-04T03:10:59.725Z,10.11
2023-05-04T03:11:59.778Z,10.15
2023-05-04T03:12:59.837Z,10.02
2023-05-04T03:13:59.871Z,9.80
2023-05-04T03:14:59.935Z,9.75
2023-05-04T03:15:59.979Z,9.81
2023-05-04T03:17:00.014Z,9.44
2023-05-04T03:18:00.248Z,9.84
2023-05-04T03:19:00.112Z,9.64
2023-05-04T03:20:00.177Z,9.79
2023-05-04T03:21:00.184Z,9.70
2023-05-04T03:22:00.230Z,9.49
2023-05-04T03:23:00.259Z,9.71
2023-05-04T03:24:00.303Z,9.79
2023-05-04T03:25:00.342Z,9.55
2023-05-04T03:26:00.370Z,9.57
2023-05-04T03:27:00.415Z,9.19
2023-05-04T03:28:00.461Z,9.27
2023-05-04T03:29:00.505Z,9.32
2023-05-04T03:30:00.549Z,9.34
2023-05-04T03:31:00.580Z,9.26
2023-05-04T03:32:00.656Z,9.42
2023-05-04T03:33:00.676Z,9.17
2023-05-04T03:34:01.408Z,9.18
2023-05-04T03:35:02.598Z,9.11
2023-05-04T03:36:00.702Z,9.30
2023-05-04T03:37:00.689Z,9.14
2023-05-04T03:38:00.690Z,9.18
2023-05-04T03:39:00.685Z,9.15
2023-05-04T03:40:00.683Z,8.97
2023-05-04T03:41:00.667Z,9.00
2023-05-04T03:42:00.676Z,8.89
2023-05-04T03:43:00.655Z,8.91
2023-05-04T03:44:00.658Z,9.18
2023-05-04T03:45:03.195Z,8.98
2023-05-04T03:46:00.766Z,8.99
2023-05-04T03:47:00.645Z,9.00
2023-05-04T03:48:00.663Z,8.96
2023-05-04T03:49:00.619Z,9.05
2023-05-04T03:50:00.612Z,8.98
2023-05-04T03:51:00.613Z,9.00
2023-05-04T03:52:00.609Z,8.90
2023-05-04T03:53:00.590Z,8.76
2023-05-04T03:54:00.582Z,8.93
2023-05-04T03:55:00.581Z,8.86
2023-05-04T03:56:00.571Z,9.06
2023-05-04T03:57:00.558Z,8.99
2023-05-04T03:58:00.551Z,9.11
2023-05-04T03:59:00.545Z,8.98
2023-05-04T04:00:00.550Z,8.97
2023-05-04T04:01:00.533Z,9.02
2023-05-04T04:02:00.545Z,9.04
2023-05-04T04:03:00.572Z,8.95
2023-05-04T04:04:00.599Z,8.69
2023-05-04T04:05:00.512Z,8.81
2023-05-04T04:06:00.497Z,8.76
2023-05-04T04:07:00.490Z,8.83
2023-05-04T04:08:00.491Z,8.68
2023-05-04T04:09:00.488Z,8.78
2023-05-04T04:10:00.496Z,8.69
2023-05-04T04:11:00.495Z,8.60
2023-05-04T04:12:00.538Z,8.68
2023-05-04T04:13:00.490Z,8.59
2023-05-04T04:14:00.442Z,8.42
2023-05-04T04:15:00.444Z,8.60
2023-05-04T04:16:00.497Z,8.53
2023-05-04T04:17:00.422Z,8.56
2023-05-04T04:18:00.439Z,8.37
2023-05-04T04:19:00.411Z,8.70
2023-05-04T04:20:00.403Z,8.47
2023-05-04T04:21:00.389Z,8.59
2023-05-04T04:22:00.406Z,8.52
2023-05-04T04:23:00.391Z,8.41
2023-05-04T04:24:00.369Z,8.26
2023-05-04T04:25:00.366Z,8.57
2023-05-04T04:26:00.362Z,8.40
2023-05-04T04:27:00.369Z,8.46
2023-05-04T04:28:00.353Z,8.28
2023-05-04T04:29:00.344Z,8.34
2023-05-04T04:30:00.345Z,8.40
2023-05-04T04:31:00.352Z,8.40
2023-05-04T04:32:00.354Z,8.19
2023-05-04T04:33:00.331Z,8.11
2023-05-04T04:34:00.308Z,8.24
2023-05-04T04:35:00.328Z,8.08
2023-05-04T04:36:00.298Z,8.18
2023-05-04T04:37:00.295Z,8.09
2023-05-04T04:38:02.881Z,7.99
2023-05-04T04:39:00.290Z,8.24
2023-05-04T04:40:00.276Z,7.98
2023-05-04T04:41:00.263Z,8.05
2023-05-04T04:42:00.257Z,8.01
2023-05-04T04:43:00.262Z,7.86
2023-05-04T04:44:00.285Z,7.97
2023-05-04T04:45:00.251Z,7.97
2023-05-04T04:46:00.225Z,8.00
2023-05-04T04:47:00.280Z,7.92
2023-05-04T04:48:00.275Z,7.86
2023-05-04T04:49:00.200Z,7.91
2023-05-04T04:50:00.229Z,7.78
2023-05-04T04:51:00.254Z,7.69
2023-05-04T04:52:00.182Z,7.87
2023-05-04T04:53:00.248Z,7.76
2023-05-04T04:54:00.160Z,7.73
2023-05-04T04:55:00.231Z,7.56
2023-05-04T04:56:00.222Z,7.65
2023-05-04T04:57:00.191Z,7.63
2023-05-04T04:58:00.162Z,7.49
2023-05-04T04:59:00.176Z,7.54
2023-05-04T05:00:00.119Z,7.42
2023-05-04T05:01:00.165Z,7.58
2023-05-04T05:02:00.164Z,7.44
2023-05-04T05:03:00.321Z,7.26
2023-05-04T05:04:00.090Z,7.32
2023-05-04T05:05:00.237Z,7.62
2023-05-04T05:06:00.106Z,7.45
2023-05-04T05:07:00.076Z,7.59
2023-05-04T05:08:00.061Z,7.52
2023-05-04T05:09:00.055Z,7.46
2023-05-04T05:10:00.058Z,7.44
2023-05-04T05:11:00.053Z,7.38
2023-05-04T05:12:00.042Z,7.32
2023-05-04T05:13:00.413Z,7.37
2023-05-04T05:14:00.053Z,7.43
2023-05-04T05:15:00.022Z,7.43
2023-05-04T05:16:00.025Z,7.32
2023-05-04T05:17:00.167Z,7.41
2023-05-04T05:18:00.058Z,7.41
2023-05-04T05:18:59.992Z,7.52
2023-05-04T05:19:59.982Z,7.63
2023-05-04T05:20:59.991Z,7.42
2023-05-04T05:21:59.987Z,7.65
2023-05-04T05:22:59.959Z,7.46
2023-05-04T05:23:59.942Z,7.44
2023-05-04T05:25:00.019Z,7.45
2023-05-04T05:26:02.644Z,7.57
2023-05-04T05:26:59.933Z,7.74
2023-05-04T05:27:59.923Z,7.51
2023-05-04T05:28:59.903Z,7.55
2023-05-04T05:29:59.900Z,7.67
2023-05-04T05:30:59.910Z,8.17
2023-05-04T05:31:59.893Z,8.30
2023-05-04T05:32:59.906Z,8.87
2023-05-04T05:33:59.887Z,9.64
2023-05-04T05:34:59.889Z,10.54
2023-05-04T05:35:59.877Z,11.29
2023-05-04T05:36:59.869Z,12.01
2023-05-04T05:37:59.940Z,12.48
2023-05-04T05:38:59.849Z,13.75
2023-05-04T05:39:59.840Z,14.94
2023-05-04T05:40:59.853Z,16.43
2023-05-04T05:41:59.842Z,17.99
2023-05-04T05:42:59.827Z,19.41
2023-05-04T05:43:59.809Z,20.33
2023-05-04T05:44:59.804Z,21.92
2023-05-04T05:45:59.807Z,23.13
2023-05-04T05:46:59.797Z,24.44
2023-05-04T05:47:59.801Z,26.72
2023-05-04T05:49:00.387Z,28.16
2023-05-04T05:49:59.789Z,30.76
2023-05-04T05:50:59.777Z,31.98
2023-05-04T05:51:59.765Z,34.68
2023-05-04T05:52:59.757Z,36.49
2023-05-04T05:53:59.783Z,39.25
2023-05-04T05:55:02.244Z,40.74
2023-05-04T05:55:59.737Z,40.86
2023-05-04T05:56:59.738Z,41.46
2023-05-04T05:57:59.720Z,43.07
2023-05-04T05:58:59.784Z,47.38
2023-05-04T05:59:59.710Z,53.26
2023-05-04T06:00:59.715Z,57.70
2023-05-04T06:01:59.734Z,59.45
2023-05-04T06:02:59.780Z,60.71
2023-05-04T06:03:59.827Z,65.21
2023-05-04T06:04:59.857Z,69.16
2023-05-04T06:06:00.397Z,73.29
2023-05-04T06:06:59.667Z,78.64
2023-05-04T06:07:59.758Z,83.81
2023-05-04T06:08:59.663Z,87.37
2023-05-04T06:09:59.652Z,93.39
2023-05-04T06:10:59.647Z,94.20
2023-05-04T06:11:59.649Z,102.40
2023-05-04T06:13:00.489Z,108.51
2023-05-04T06:13:59.629Z,116.41
2023-05-04T06:14:59.617Z,119.45
2023-05-04T06:15:59.628Z,123.20
2023-05-04T06:16:59.594Z,128.56
2023-05-04T06:17:59.652Z,129.74
2023-05-04T06:18:59.582Z,135.61
2023-05-04T06:19:59.576Z,142.69
2023-05-04T06:20:59.682Z,150.54
2023-05-04T06:21:59.561Z,153.70
2023-05-04T06:22:59.584Z,160.06
2023-05-04T06:23:59.568Z,171.13
2023-05-04T06:25:03.613Z,171.33
2023-05-04T06:26:00.552Z,172.15
2023-05-04T06:26:59.536Z,172.52
2023-05-04T06:27:59.540Z,135.06
2023-05-04T06:28:59.531Z,118.04
2023-05-04T06:29:59.511Z,101.20
2023-05-04T06:30:59.509Z,91.40
2023-05-04T06:31:59.574Z,94.58
2023-05-04T06:32:59.542Z,75.02
2023-05-04T06:33:59.496Z,63.48
2023-05-04T06:34:59.482Z,56.87
2023-05-04T06:35:59.473Z,48.92
2023-05-04T06:36:59.487Z,42.84
2023-05-04T06:37:59.485Z,46.82
2023-05-04T06:38:59.496Z,45.52
2023-05-04T06:39:59.656Z,41.52
2023-05-04T06:40:59.614Z,34.93
2023-05-04T06:41:59.684Z,31.20
2023-05-04T06:42:59.732Z,30.30
2023-05-04T06:43:59.808Z,27.37
2023-05-04T06:44:59.880Z,24.01
2023-05-04T06:45:59.931Z,22.46
2023-05-04T06:46:59.979Z,19.71
2023-05-04T06:48:00.064Z,18.44
2023-05-04T06:49:00.090Z,17.56
2023-05-04T06:50:00.126Z,16.18
2023-05-04T06:51:01.527Z,14.63
2023-05-04T06:52:00.129Z,14.79
2023-05-04T06:53:00.134Z,14.85
2023-05-04T06:54:00.206Z,14.00
2023-05-04T06:55:00.180Z,13.99
2023-05-04T06:56:00.137Z,13.38
2023-05-04T06:57:00.133Z,11.93
2023-05-04T06:58:00.151Z,10.69
2023-05-04T06:59:00.099Z,9.85
2023-05-04T07:00:00.107Z,9.55
2023-05-04T07:01:00.115Z,9.49
2023-05-04T07:02:00.062Z,8.56
2023-05-04T07:03:00.142Z,9.38
2023-05-04T07:04:00.126Z,9.02
2023-05-04T07:05:00.044Z,9.28
2023-05-04T07:06:00.053Z,9.52
2023-05-04T07:07:00.040Z,9.83
2023-05-04T07:08:00.428Z,8.90
2023-05-04T07:09:00.013Z,9.09
2023-05-04T07:10:00.041Z,8.28
2023-05-04T07:11:00.008Z,8.40
2023-05-04T07:12:00.009Z,7.44
2023-05-04T07:13:00.004Z,6.77
2023-05-04T07:13:59.986Z,5.86
2023-05-04T07:14:59.978Z,5.52
2023-05-04T07:16:00.011Z,5.88
2023-05-04T07:16:59.964Z,6.32
2023-05-04T07:18:00.168Z,5.42
2023-05-04T07:18:59.952Z,5.56
2023-05-04T07:19:59.957Z,5.48
2023-05-04T07:21:16.323Z,5.94
2023-05-04T07:22:01.913Z,5.94
2023-05-04T07:22:59.918Z,5.95
2023-05-04T07:23:59.907Z,6.14
2023-05-04T07:25:00.481Z,6.02
2023-05-04T07:25:59.911Z,5.23
2023-05-04T07:27:00.839Z,5.73
2023-05-04T07:28:01.378Z,4.70
2023-05-04T07:28:59.914Z,5.15
2023-05-04T07:29:59.998Z,4.92
2023-05-04T07:31:00.016Z,5.15
2023-05-04T07:32:00.122Z,4.71
2023-05-04T07:33:00.180Z,4.64
2023-05-04T07:34:00.164Z,3.95
2023-05-04T07:35:00.219Z,4.50
2023-05-04T07:36:00.267Z,5.03
2023-05-04T07:37:00.308Z,5.57
2023-05-04T07:38:00.347Z,5.35
2023-05-04T07:39:00.384Z,5.69
2023-05-04T07:40:00.424Z,5.64
2023-05-04T07:41:01.422Z,5.31
2023-05-04T07:42:00.482Z,6.09
2023-05-04T07:43:00.554Z,5.99
2023-05-04T07:44:01.445Z,5.54
2023-05-04T07:45:00.546Z,5.67
2023-05-04T07:46:00.830Z,5.88
2023-05-04T07:47:00.591Z,6.09
2023-05-04T07:48:00.765Z,5.88
2023-05-04T07:49:01.419Z,6.10
2023-05-04T07:50:00.655Z,5.85
2023-05-04T07:51:00.663Z,5.58
2023-05-04T07:52:00.658Z,5.59
2023-05-04T07:53:00.666Z,5.83
2023-05-04T07:54:00.701Z,4.65
2023-05-04T07:55:00.691Z,5.03
2023-05-04T07:56:00.706Z,4.36
2023-05-04T07:57:01.348Z,5.17
2023-05-04T07:58:00.759Z,4.79
2023-05-04T07:59:00.709Z,5.33
2023-05-04T08:00:01.390Z,5.62
2023-05-04T08:01:00.728Z,5.60
2023-05-04T08:02:00.768Z,5.83
2023-05-04T08:03:00.779Z,6.18
2023-05-04T08:04:00.724Z,6.59
2023-05-04T08:05:01.453Z,6.75
2023-05-04T08:06:00.736Z,6.64
2023-05-04T08:07:00.723Z,6.27
2023-05-04T08:08:00.786Z,6.25
2023-05-04T08:09:00.741Z,6.42
2023-05-04T08:10:00.764Z,6.42
2023-05-04T08:11:12.294Z,5.47
2023-05-04T08:12:01.795Z,5.05
2023-05-04T08:13:00.831Z,4.66
2023-05-04T08:14:00.940Z,3.64
2023-05-04T08:15:01.423Z,3.25
2023-05-04T08:16:00.774Z,3.26
2023-05-04T08:17:00.767Z,3.02
2023-05-04T08:18:00.830Z,1.97
2023-05-04T08:19:00.754Z,1.34
2023-05-04T08:20:00.740Z,1.02
2023-05-04T08:21:00.750Z,0.99
2023-05-04T08:22:00.726Z,0.73
2023-05-04T08:23:00.730Z,0.52
2023-05-04T08:24:00.731Z,0.49
2023-05-04T08:25:00.716Z,0.55
2023-05-04T08:26:00.719Z,0.53
2023-05-04T08:27:07.899Z,0.67
2023-05-04T08:28:01.954Z,0.68
2023-05-04T08:29:00.706Z,0.74
2023-05-04T08:30:01.098Z,0.89
2023-05-04T08:31:01.445Z,1.19
2023-05-04T08:32:01.526Z,1.89
2023-05-04T08:33:00.707Z,2.23
2023-05-04T08:34:00.673Z,2.47
2023-05-04T08:35:01.745Z,2.76
2023-05-04T08:36:00.661Z,2.83
2023-05-04T08:37:00.655Z,2.80
2023-05-04T08:38:00.692Z,3.14
2023-05-04T08:39:00.640Z,3.42
2023-05-04T08:40:00.647Z,3.73
2023-05-04T08:41:00.628Z,4.06
2023-05-04T08:42:00.695Z,4.34
2023-05-04T08:43:01.456Z,4.32
2023-05-04T08:44:00.812Z,4.52
2023-05-04T08:45:01.456Z,4.72
2023-05-04T08:46:00.977Z,4.98
2023-05-04T08:47:00.977Z,5.30
2023-05-04T08:48:01.076Z,5.52
2023-05-04T08:49:01.105Z,5.56
2023-05-04T08:50:01.182Z,6.05
2023-05-04T08:51:01.206Z,5.90
2023-05-04T08:52:01.268Z,6.19
2023-05-04T08:53:01.308Z,6.78
2023-05-04T08:54:01.350Z,7.05
2023-05-04T08:55:01.400Z,7.42
2023-05-04T08:56:01.489Z,7.92
2023-05-04T08:57:01.473Z,7.82
2023-05-04T08:58:01.525Z,7.35
2023-05-04T08:59:01.563Z,8.22
2023-05-04T09:00:01.592Z,8.72
2023-05-04T09:01:01.711Z,9.21
2023-05-04T09:02:01.786Z,9.08
2023-05-04T09:03:01.784Z,9.67
2023-05-04T09:04:01.749Z,10.06
2023-05-04T09:05:01.827Z,10.65
2023-05-04T09:06:01.788Z,10.85
2023-05-04T09:07:01.815Z,11.37
2023-05-04T09:08:01.822Z,11.57
2023-05-04T09:09:01.858Z,11.69
2023-05-04T09:10:01.872Z,12.02
2023-05-04T09:11:01.873Z,12.33
2023-05-04T09:12:01.890Z,12.70
2023-05-04T09:13:01.978Z,12.61
2023-05-04T09:14:01.950Z,12.99
2023-05-04T09:15:02.122Z,12.69
2023-05-04T09:16:01.965Z,8.67
2023-05-04T09:17:02.077Z,7.64
2023-05-04T09:18:02.079Z,6.20
2023-05-04T09:19:02.050Z,5.74
2023-05-04T09:20:02.079Z,4.76
2023-05-04T09:21:02.140Z,4.66
2023-05-04T09:22:02.154Z,5.00
2023-05-04T09:23:02.237Z,4.98
2023-05-04T09:24:02.292Z,4.94
2023-05-04T09:25:02.348Z,5.65
2023-05-04T09:26:02.316Z,6.45
2023-05-04T09:27:02.344Z,7.19
2023-05-04T09:28:02.383Z,8.06
2023-05-04T09:29:02.404Z,8.65
2023-05-04T09:30:02.460Z,9.33
2023-05-04T09:31:02.477Z,10.14
2023-05-04T09:32:02.495Z,10.43
2023-05-04T09:33:02.527Z,11.08
2023-05-04T09:34:02.500Z,10.89
2023-05-04T09:35:02.710Z,11.26
2023-05-04T09:36:03.393Z,11.43
2023-05-04T09:37:02.562Z,11.46
2023-05-04T09:38:02.568Z,11.74
2023-05-04T09:39:02.655Z,11.74
2023-05-04T09:40:03.485Z,11.80
2023-05-04T09:41:02.609Z,12.16
2023-05-04T09:42:02.672Z,12.40
2023-05-04T09:43:02.640Z,12.60
2023-05-04T09:44:02.652Z,13.14
2023-05-04T09:45:02.845Z,13.28
2023-05-04T09:46:02.722Z,13.12
2023-05-04T09:47:02.682Z,14.05
2023-05-04T09:48:02.776Z,14.22
2023-05-04T09:49:02.701Z,12.95
2023-05-04T09:50:02.951Z,13.42
2023-05-04T09:51:02.712Z,14.36
2023-05-04T09:52:02.767Z,13.99
2023-05-04T09:53:02.735Z,14.04
2023-05-04T09:54:02.724Z,15.23
2023-05-04T09:55:02.869Z,16.03
2023-05-04T09:56:04.444Z,16.71
2023-05-04T09:57:02.731Z,16.64
2023-05-04T09:58:03.485Z,16.67
2023-05-04T09:59:02.715Z,16.32
2023-05-04T10:00:02.744Z,16.16
2023-05-04T10:01:02.717Z,16.41
2023-05-04T10:02:14.478Z,16.36
2023-05-04T10:03:03.744Z,16.39
2023-05-04T10:04:02.675Z,16.43
2023-05-04T10:05:02.904Z,16.40
2023-05-04T10:06:02.681Z,16.25
2023-05-04T10:07:02.657Z,15.64
2023-05-04T10:08:03.566Z,14.94
2023-05-04T10:09:02.656Z,14.64
2023-05-04T10:10:02.636Z,14.77
2023-05-04T10:11:02.705Z,14.99
2023-05-04T10:12:02.627Z,14.42
2023-05-04T10:13:02.648Z,14.01
2023-05-04T10:14:02.683Z,13.01
2023-05-04T10:15:02.656Z,12.63
2023-05-04T10:16:02.692Z,11.75
2023-05-04T10:17:02.599Z,10.42
2023-05-04T10:18:02.611Z,10.44
2023-05-04T10:19:02.583Z,10.87
2023-05-04T10:20:02.573Z,10.78
2023-05-04T10:21:02.572Z,11.03
2023-05-04T10:22:02.557Z,10.80
2023-05-04T10:23:02.635Z,11.07
2023-05-04T10:24:02.552Z,10.83
2023-05-04T10:25:02.725Z,10.69
2023-05-04T10:26:02.550Z,10.52
2023-05-04T10:27:02.534Z,10.71
2023-05-04T10:28:02.559Z,11.10
2023-05-04T10:29:02.507Z,11.23
2023-05-04T10:30:02.505Z,11.40
2023-05-04T10:31:02.506Z,11.31
2023-05-04T10:32:02.547Z,11.64
2023-05-04T10:33:02.571Z,11.51
2023-05-04T10:34:02.573Z,11.76
2023-05-04T10:35:02.664Z,11.71
2023-05-04T10:36:02.636Z,11.79
2023-05-04T10:37:02.728Z,12.33
2023-05-04T10:38:02.733Z,12.40
2023-05-04T10:39:03.005Z,12.31
2023-05-04T10:40:02.809Z,12.75
2023-05-04T10:41:02.831Z,12.81
2023-05-04T10:42:02.905Z,12.85
2023-05-04T10:43:02.951Z,13.22
2023-05-04T10:44:02.984Z,13.01
2023-05-04T10:45:03.103Z,12.91
2023-05-04T10:46:03.290Z,13.02
2023-05-04T10:47:03.122Z,13.26
2023-05-04T10:48:03.202Z,13.21
2023-05-04T10:49:03.228Z,13.39
2023-05-04T10:50:03.278Z,13.33
2023-05-04T10:51:03.328Z,13.41
2023-05-04T10:52:03.366Z,13.47
2023-05-04T10:53:03.432Z,13.14
2023-05-04T10:54:04.007Z,13.44
2023-05-04T10:55:03.751Z,13.23
2023-05-04T10:56:03.614Z,13.50
2023-05-04T10:57:03.710Z,13.44
2023-05-04T10:58:03.757Z,13.25
2023-05-04T10:59:03.792Z,13.29
2023-05-04T11:00:03.847Z,13.55
2023-05-04T11:01:04.515Z,13.89
2023-05-04T11:02:04.104Z,13.58
2023-05-04T11:03:04.207Z,13.93
2023-05-04T11:04:04.517Z,13.79
2023-05-04T11:05:04.522Z,13.82
2023-05-04T11:06:04.193Z,13.70
2023-05-04T11:07:04.261Z,13.66
2023-05-04T11:08:04.316Z,13.82
2023-05-04T11:09:04.371Z,13.83
2023-05-04T11:10:04.433Z,13.81
2023-05-04T11:11:04.500Z,13.65
2023-05-04T11:12:04.573Z,13.78
2023-05-04T11:13:06.461Z,13.98
2023-05-04T11:14:04.625Z,14.15
2023-05-04T11:15:04.787Z,14.23
2023-05-04T11:16:04.622Z,14.49
2023-05-04T11:17:07.416Z,14.30
2023-05-04T11:18:05.636Z,14.34
2023-05-04T11:19:04.578Z,14.43
2023-05-04T11:20:04.569Z,14.55
2023-05-04T11:21:05.509Z,14.77
2023-05-04T11:22:04.560Z,14.97
2023-05-04T11:23:04.535Z,15.04
2023-05-04T11:24:04.543Z,15.17
2023-05-04T11:25:04.598Z,15.07
2023-05-04T11:26:04.571Z,14.85
2023-05-04T11:27:04.635Z,15.07
2023-05-04T11:28:07.517Z,14.98
2023-05-04T11:29:04.700Z,15.43
2023-05-04T11:30:04.712Z,15.11
2023-05-04T11:31:04.697Z,15.04
2023-05-04T11:32:04.673Z,15.30
2023-05-04T11:33:04.716Z,14.96
2023-05-04T11:34:04.762Z,14.67
2023-05-04T11:35:05.701Z,14.67
2023-05-04T11:36:05.525Z,14.90
2023-05-04T11:37:04.657Z,14.88
2023-05-04T11:38:04.654Z,14.86
2023-05-04T11:39:04.631Z,14.35
2023-05-04T11:40:05.522Z,14.24
2023-05-04T11:41:04.658Z,14.38
2023-05-04T11:42:04.606Z,14.45
2023-05-04T11:43:04.605Z,14.26
2023-05-04T11:44:04.587Z,14.13
2023-05-04T11:45:04.751Z,14.40
2023-05-04T11:46:04.669Z,14.22
2023-05-04T11:47:04.574Z,14.58
2023-05-04T11:48:04.608Z,14.51
2023-05-04T11:49:04.563Z,14.67
2023-05-04T11:50:04.550Z,15.43
2023-05-04T11:51:04.557Z,16.16
2023-05-04T11:52:04.531Z,16.88
2023-05-04T11:53:04.547Z,17.53
2023-05-04T11:54:04.575Z,18.26
2023-05-04T11:55:04.908Z,18.80
2023-05-04T11:56:04.721Z,19.13
2023-05-04T11:57:04.696Z,19.56
2023-05-04T11:58:04.736Z,19.96
2023-05-04T11:59:04.772Z,20.88
2023-05-04T12:00:04.802Z,21.61
2023-05-04T12:01:05.029Z,21.91
2023-05-04T12:02:04.906Z,21.93
2023-05-04T12:03:04.955Z,23.13
2023-05-04T12:04:05.039Z,23.88
2023-05-04T12:05:05.526Z,24.58
2023-05-04T12:06:05.178Z,25.49
2023-05-04T12:07:05.080Z,25.71
2023-05-04T12:08:05.092Z,26.88
2023-05-04T12:09:05.099Z,29.32
2023-05-04T12:10:05.145Z,29.87
2023-05-04T12:11:05.175Z,30.64
2023-05-04T12:12:06.116Z,31.96
2023-05-04T12:13:05.267Z,31.82
2023-05-04T12:14:05.271Z,31.95
2023-05-04T12:15:05.509Z,32.04
2023-05-04T12:16:05.371Z,31.88
2023-05-04T12:17:05.364Z,32.34
2023-05-04T12:18:05.447Z,33.16
2023-05-04T12:19:05.441Z,33.07
2023-05-04T12:20:05.432Z,33.15
2023-05-04T12:21:05.425Z,33.09
2023-05-04T12:22:05.416Z,33.09
2023-05-04T12:23:05.415Z,30.80
2023-05-04T12:24:05.416Z,27.63
2023-05-04T12:25:05.586Z,24.63
2023-05-04T12:26:05.392Z,24.69
2023-05-04T12:27:05.383Z,18.63
2023-05-04T12:28:05.376Z,17.92
2023-05-04T12:29:05.375Z,12.24
2023-05-04T12:30:05.414Z,8.98
2023-05-04T12:31:05.469Z,7.62
2023-05-04T12:32:05.527Z,8.03
2023-05-04T12:33:05.690Z,7.27
2023-05-04T12:34:05.604Z,7.45
2023-05-04T12:35:05.776Z,7.08
2023-05-04T12:36:05.697Z,6.10
2023-05-04T12:37:05.760Z,5.85
2023-05-04T12:38:05.779Z,6.23
2023-05-04T12:39:05.799Z,6.47
2023-05-04T12:40:17.256Z,6.79
2023-05-04T12:41:06.840Z,6.81
2023-05-04T12:42:05.862Z,6.95
2023-05-04T12:43:05.819Z,7.26
2023-05-04T12:44:05.810Z,7.58
2023-05-04T12:45:06.066Z,8.32
2023-05-04T12:46:06.596Z,8.54
2023-05-04T12:47:05.819Z,8.55
2023-05-04T12:48:05.826Z,8.47
2023-05-04T12:49:05.794Z,8.70
2023-05-04T12:50:05.772Z,8.81
2023-05-04T12:51:05.809Z,9.32
2023-05-04T12:52:05.767Z,9.59
2023-05-04T12:53:05.824Z,9.62
2023-05-04T12:54:05.880Z,9.61
2023-05-04T12:55:06.088Z,9.10
2023-05-04T12:56:05.993Z,9.47
2023-05-04T12:57:06.041Z,9.32
2023-05-04T12:58:06.105Z,9.54
2023-05-04T12:59:06.186Z,9.36
2023-05-04T13:00:06.242Z,9.05
2023-05-04T13:01:06.322Z,8.94
2023-05-04T13:02:06.342Z,9.07
2023-05-04T13:03:06.504Z,9.23